Coober Pedy, South Australia

2:18 AM ACST on April 19, 2015 (GMT +0930)
Coober Pedy | | Change Station
CLOSE
Current Station
Personal Weather Station
Location: Coober Pedy, SOUTH AUSTRALIA
Elevation: 663 ft
Nearby Weather Stations

Elev 663 ft 29.00 °S, 134.76 °E | Updated 1 second ago

Clear
Clear
58.6 °F
Feels Like 58.6 °F
N
2.0
Wind Variable Wind from West
Gusts 2.5 mph

Today
High -- | Low -- °F
--% Chance of Precip.
Yesterday
High -- | Low -- °F
Precip. -- in
6:51 AM 6:09 PM
Waning Crescent, 0% visible
Pressure 30.27 in
Visibility -9999.0 miles
Clouds
Dew Point 46 °F
Humidity 63%
Rainfall 0.00 in
Snow Depth Not available.
UV 0.0 out of 12
Pollen Not available.
Air Quality Not available.
Flu Activity Not available.
METAR YCBP 181600Z AUTO 21007KT //// // NCD 13/06 Q1025

More Conditions Fewer Conditions

Pressure 30.27 in
Visibility -9999.0 miles
Clouds
Dew Point 46 °F
Humidity 63%
Rainfall 0.00 in
Snow Depth Not available.
UV 0.0 out of 12
Pollen Not available.
Air Quality Not available.
Flu Activity Not available.
METAR YCBP 181600Z AUTO 21007KT //// // NCD 13/06 Q1025

More Conditions Fewer Conditions

10-Day Weather Forecast

Almanac

Astronomy

Apr. 19, 2015 Rise Set
Actual Time
Civil Twilight
Nautical Twilight
Astronomical Twilight
Moon
Length of Visible Light
Length of Day
Tomorrow will be .
, % of the Moon is Illuminated

Today's Extremes

Country Highs Country Lows

Community

WunderPhotos

Upload Photos

1,814,457 photos uploaded!

WunderBlogs® & News

Nearby

Air Quality

  Air Quality AQ Index Pollutant
Not available.

Snow Depth

Station Depth Elevation

Earthquake Activity

City Distance Mag. Time & Date
Minimum magnitude displayed is 2.5.

Coastal Water Temperatures

Place Temperature

Stations

Nearby Weather Stations

Station Location Temp. Windchill Dew Point Humidity Wind Precip. Elev Updated Type